Clayton, Georgia
Current Conditions -  °F | °C
As of 9:35 PM on Thursday 20 Nov 2014 (Local Time) from KTOC Reporting Station
Clear Clear  
Wind Chill: 43°   Ceiling: Unl
Heat Index: 46°   Visibility: 10mi
Dew Point: 30°   Wind: 6mph
Humidity: 54%   Direction: 250°WSW
Pressure: 30.21"   Gusts: NA
Location:  34.88°N, 83.4°W
Report Text: KTOC 210235Z AUTO 25005KT 10SM CLR 08/M01 A3021 RMK AO2 T00791010
Loading
Personal Weather Stations






























Interactive Weather Map New forecast layout! Learn more

10-Day Weather Forecast

Advertisements
Track Severe Weather on mobile